Time;durP1;ratioP1;P1;durP2;ratioP2;P2;SDS_P1;SDS_P2;PMS_P1;PMS_P2;Temp;Humidity;BMP_temperature;BMP_pressure;BME280_temperature;BME280_humidity;BME280_pressure;Samples;Min_cycle;Max_cycle;Signal;HPM_P1;HPM_P2
2023/03/31 00:00:53;;;;;;;24.93;5.03;;;;;;;;;;4966787;28;20274;-73
2023/03/31 00:03:21;;;;;;;22.37;5.80;;;;;;;;;;4965363;28;20669;-72
2023/03/31 00:05:54;;;;;;;21.27;4.30;;;;;;;;;;4952504;28;20653;-72
2023/03/31 00:08:20;;;;;;;24.70;5.60;;;;;;;;;;4948687;28;20465;-73
2023/03/31 00:10:45;;;;;;;17.83;4.43;;;;;;;;;;4948441;28;20453;-72
2023/03/31 00:13:11;;;;;;;25.60;5.30;;;;;;;;;;4958751;28;20254;-73
2023/03/31 00:15:36;;;;;;;26.53;5.50;;;;;;;;;;4958460;28;20633;-72
2023/03/31 00:18:01;;;;;;;22.17;5.20;;;;;;;;;;4958581;28;20211;-73
2023/03/31 00:20:27;;;;;;;17.20;4.50;;;;;;;;;;4958801;28;20179;-73
2023/03/31 00:22:53;;;;;;;20.80;5.03;;;;;;;;;;4959221;28;20187;-73
2023/03/31 00:25:19;;;;;;;30.63;5.37;;;;;;;;;;4958546;28;20575;-73
2023/03/31 00:27:44;;;;;;;21.33;4.73;;;;;;;;;;4956458;28;20751;-73
2023/03/31 00:30:11;;;;;;;23.47;4.63;;;;;;;;;;4959815;28;20186;-73
2023/03/31 00:32:36;;;;;;;25.03;5.03;;;;;;;;;;4958431;28;20742;-73
2023/03/31 00:35:02;;;;;;;24.27;6.00;;;;;;;;;;4954666;28;20441;-73
2023/03/31 00:37:28;;;;;;;24.77;5.07;;;;;;;;;;4959437;28;20267;-73
2023/03/31 00:39:53;;;;;;;24.20;5.33;;;;;;;;;;4960251;28;20450;-73
2023/03/31 00:42:19;;;;;;;18.87;4.40;;;;;;;;;;4956177;28;20200;-73
2023/03/31 00:45:04;;;;;;;28.43;6.00;;;;;;;;;;4957808;28;20282;-73
2023/03/31 00:47:29;;;;;;;18.53;4.70;;;;;;;;;;4950519;28;20214;-73
2023/03/31 00:49:56;;;;;;;21.73;5.13;;;;;;;;;;4959332;28;20430;-73
2023/03/31 00:52:34;;;;;;;28.67;4.60;;;;;;;;;;4960189;28;20190;-73
2023/03/31 00:55:03;;;;;;;16.03;4.20;;;;;;;;;;4968231;28;20421;-73
2023/03/31 00:57:31;;;;;;;17.33;4.50;;;;;;;;;;4960672;28;20453;-72
2023/03/31 01:00:00;;;;;;;22.13;5.23;;;;;;;;;;4962400;28;20434;-73
2023/03/31 01:02:26;;;;;;;16.30;4.43;;;;;;;;;;4962986;28;20438;-73
2023/03/31 01:04:54;;;;;;;21.37;4.97;;;;;;;;;;4965340;28;20429;-73
2023/03/31 01:07:22;;;;;;;27.57;5.70;;;;;;;;;;4961964;28;20543;-73
2023/03/31 01:09:49;;;;;;;22.93;5.17;;;;;;;;;;4962362;28;20453;-72
2023/03/31 01:12:16;;;;;;;21.63;4.80;;;;;;;;;;4960391;28;20440;-72
2023/03/31 01:14:41;;;;;;;20.43;4.43;;;;;;;;;;4963864;28;20465;-73
2023/03/31 01:17:08;;;;;;;25.77;6.10;;;;;;;;;;4961788;28;20449;-73
2023/03/31 01:19:44;;;;;;;20.33;4.70;;;;;;;;;;4961456;28;20175;-73
2023/03/31 01:22:26;;;;;;;23.27;4.50;;;;;;;;;;4959049;28;20437;-73
2023/03/31 01:25:10;;;;;;;25.10;5.67;;;;;;;;;;4957868;28;20460;-72
2023/03/31 01:27:44;;;;;;;27.43;5.10;;;;;;;;;;4958417;28;20518;-72
2023/03/31 01:30:21;;;;;;;22.40;5.43;;;;;;;;;;4961125;28;20429;-73
2023/03/31 01:33:02;;;;;;;28.63;5.40;;;;;;;;;;4959629;28;20519;-73
2023/03/31 01:35:46;;;;;;;22.43;5.40;;;;;;;;;;4960059;28;20953;-73
2023/03/31 01:38:11;;;;;;;18.47;5.47;;;;;;;;;;4963404;28;20456;-72
2023/03/31 01:40:54;;;;;;;22.83;5.17;;;;;;;;;;4958321;28;20438;-73
2023/03/31 01:43:23;;;;;;;23.10;5.67;;;;;;;;;;4955865;28;20182;-73
2023/03/31 01:46:07;;;;;;;24.70;5.13;;;;;;;;;;4960166;28;20461;-73
2023/03/31 01:48:33;;;;;;;23.47;5.30;;;;;;;;;;4962242;28;20536;-72
2023/03/31 01:50:58;;;;;;;17.57;4.83;;;;;;;;;;4959369;28;20869;-73
2023/03/31 01:53:42;;;;;;;28.87;5.90;;;;;;;;;;4958107;28;20202;-73
2023/03/31 01:56:15;;;;;;;22.33;5.17;;;;;;;;;;4960658;28;20189;-73
2023/03/31 01:58:46;;;;;;;31.40;5.40;;;;;;;;;;4957336;28;20536;-73
2023/03/31 02:01:12;;;;;;;18.90;5.73;;;;;;;;;;4958007;28;20884;-73
2023/03/31 02:03:41;;;;;;;32.37;6.10;;;;;;;;;;4960287;28;20491;-73
2023/03/31 02:06:11;;;;;;;21.73;4.80;;;;;;;;;;4959365;28;21326;-73
2023/03/31 02:08:39;;;;;;;26.33;4.80;;;;;;;;;;4957851;28;20469;-73
2023/03/31 02:11:04;;;;;;;23.13;5.23;;;;;;;;;;4962078;28;20434;-73
2023/03/31 02:13:33;;;;;;;16.00;4.27;;;;;;;;;;4961754;28;21492;-73
2023/03/31 02:16:01;;;;;;;20.80;5.33;;;;;;;;;;4964045;28;20285;-73
2023/03/31 02:18:29;;;;;;;18.80;4.43;;;;;;;;;;4957588;28;20950;-73
2023/03/31 02:20:56;;;;;;;28.33;4.83;;;;;;;;;;4957756;28;20426;-73
2023/03/31 02:23:25;;;;;;;20.93;3.87;;;;;;;;;;4959190;28;20418;-73
2023/03/31 02:25:52;;;;;;;25.23;4.13;;;;;;;;;;4955298;28;20473;-72
2023/03/31 02:28:22;;;;;;;17.27;3.60;;;;;;;;;;4956406;28;20461;-73
2023/03/31 02:31:13;;;;;;;21.90;5.60;;;;;;;;;;4960035;28;20523;-73
2023/03/31 02:33:39;;;;;;;17.70;4.00;;;;;;;;;;4963835;28;20997;-72
2023/03/31 02:36:04;;;;;;;21.87;4.13;;;;;;;;;;4961581;28;20438;-72
2023/03/31 02:38:36;;;;;;;18.57;4.30;;;;;;;;;;4959787;28;20206;-73
2023/03/31 02:41:01;;;;;;;24.70;5.30;;;;;;;;;;4956334;28;20312;-73
2023/03/31 02:43:26;;;;;;;17.80;4.73;;;;;;;;;;4959793;28;20537;-73
2023/03/31 02:45:52;;;;;;;17.90;3.40;;;;;;;;;;4959518;28;20239;-72
2023/03/31 02:48:23;;;;;;;22.10;4.70;;;;;;;;;;4958352;28;20206;-73
2023/03/31 02:51:07;;;;;;;22.40;5.40;;;;;;;;;;4960302;28;20229;-72
2023/03/31 02:53:51;;;;;;;17.10;4.20;;;;;;;;;;4962356;28;20457;-73
2023/03/31 02:56:21;;;;;;;21.83;4.50;;;;;;;;;;4956317;28;20560;-73
2023/03/31 02:58:51;;;;;;;24.17;4.33;;;;;;;;;;4976709;28;20457;-73
2023/03/31 03:01:37;;;;;;;16.17;3.90;;;;;;;;;;4958095;28;20933;-72
2023/03/31 03:04:05;;;;;;;17.87;3.60;;;;;;;;;;4976966;28;20434;-73
2023/03/31 03:06:30;;;;;;;19.00;3.97;;;;;;;;;;4959410;28;20891;-73
2023/03/31 03:08:55;;;;;;;19.47;3.80;;;;;;;;;;4960452;28;20465;-72
2023/03/31 03:11:36;;;;;;;18.53;5.00;;;;;;;;;;4955275;28;20179;-72
2023/03/31 03:14:04;;;;;;;17.00;4.40;;;;;;;;;;4954290;28;20709;-72
2023/03/31 03:16:45;;;;;;;14.00;3.37;;;;;;;;;;4961969;28;20431;-73
2023/03/31 03:19:16;;;;;;;22.83;4.10;;;;;;;;;;4963844;28;20448;-73
2023/03/31 03:21:43;;;;;;;17.63;4.63;;;;;;;;;;4963112;28;20473;-73
2023/03/31 03:24:08;;;;;;;19.80;3.87;;;;;;;;;;4964624;28;21117;-72
2023/03/31 03:26:34;;;;;;;19.50;4.13;;;;;;;;;;4965849;28;20426;-72
2023/03/31 03:28:59;;;;;;;28.43;4.57;;;;;;;;;;4961229;28;20259;-73
2023/03/31 03:33:52;;;;;;;17.80;4.20;;;;;;;;;;4921575;28;20727;-73
2023/03/31 03:36:18;;;;;;;23.07;4.07;;;;;;;;;;4933020;28;20431;-73
2023/03/31 03:38:43;;;;;;;14.30;3.80;;;;;;;;;;4927973;28;20179;-74
2023/03/31 03:41:09;;;;;;;21.03;4.20;;;;;;;;;;4918246;28;20582;-73
2023/03/31 03:43:34;;;;;;;18.30;3.80;;;;;;;;;;4943684;28;20203;-73
2023/03/31 03:45:59;;;;;;;16.23;4.07;;;;;;;;;;4951940;28;20195;-73
2023/03/31 03:48:25;;;;;;;19.33;3.63;;;;;;;;;;4942239;28;20183;-73
2023/03/31 03:50:52;;;;;;;20.97;4.37;;;;;;;;;;4945237;28;20187;-73
2023/03/31 03:53:17;;;;;;;16.57;3.93;;;;;;;;;;4946572;28;20213;-73
2023/03/31 03:55:43;;;;;;;19.90;4.43;;;;;;;;;;4952415;28;20422;-74
2023/03/31 03:58:09;;;;;;;15.10;4.27;;;;;;;;;;4950314;28;20187;-73
2023/03/31 04:00:34;;;;;;;19.50;4.00;;;;;;;;;;4956657;28;20474;-74
2023/03/31 04:03:00;;;;;;;12.70;4.20;;;;;;;;;;4947137;28;20206;-73
2023/03/31 04:05:26;;;;;;;23.57;4.57;;;;;;;;;;4955432;28;20221;-73
2023/03/31 04:07:52;;;;;;;18.30;4.27;;;;;;;;;;4946884;28;20434;-73
2023/03/31 04:10:17;;;;;;;14.60;4.73;;;;;;;;;;4948773;28;20555;-73
2023/03/31 04:12:42;;;;;;;9.73;3.50;;;;;;;;;;4946631;28;20211;-73
2023/03/31 04:15:08;;;;;;;15.20;4.00;;;;;;;;;;4954720;28;20186;-71
2023/03/31 04:17:33;;;;;;;19.83;5.30;;;;;;;;;;4952743;28;20174;-71
2023/03/31 04:20:06;;;;;;;14.50;4.50;;;;;;;;;;4953326;28;20183;-71
2023/03/31 04:22:39;;;;;;;16.00;4.00;;;;;;;;;;4949606;28;21127;-71
2023/03/31 04:25:09;;;;;;;15.40;4.00;;;;;;;;;;4943677;28;20814;-71
2023/03/31 04:27:34;;;;;;;11.70;3.90;;;;;;;;;;4945210;28;20472;-72
2023/03/31 04:30:00;;;;;;;18.77;4.57;;;;;;;;;;4943480;28;20896;-71
2023/03/31 04:32:25;;;;;;;15.13;4.30;;;;;;;;;;4941297;28;20529;-71
2023/03/31 04:34:50;;;;;;;11.73;3.70;;;;;;;;;;4944885;28;20213;-71
2023/03/31 04:37:16;;;;;;;12.40;3.43;;;;;;;;;;4940113;28;20837;-71
2023/03/31 04:39:41;;;;;;;10.87;3.70;;;;;;;;;;4938205;28;20205;-70
2023/03/31 04:42:06;;;;;;;9.63;3.83;;;;;;;;;;4950092;28;20207;-72
2023/03/31 04:44:32;;;;;;;9.90;3.90;;;;;;;;;;4945207;28;20682;-71
2023/03/31 04:46:57;;;;;;;13.60;4.50;;;;;;;;;;4953300;28;20560;-71
2023/03/31 04:49:23;;;;;;;11.97;3.80;;;;;;;;;;4950338;28;20199;-72
2023/03/31 04:51:48;;;;;;;12.17;4.20;;;;;;;;;;4949674;28;20909;-72
2023/03/31 04:54:14;;;;;;;14.10;3.23;;;;;;;;;;4949684;28;20671;-72
2023/03/31 04:56:39;;;;;;;11.23;3.63;;;;;;;;;;4956694;28;20187;-70
2023/03/31 04:59:04;;;;;;;9.47;3.70;;;;;;;;;;4949096;28;20174;-70
2023/03/31 05:01:35;;;;;;;14.70;4.73;;;;;;;;;;4943055;28;20221;-71
2023/03/31 05:04:00;;;;;;;17.03;4.00;;;;;;;;;;4946139;28;20672;-71
2023/03/31 05:06:25;;;;;;;10.40;3.87;;;;;;;;;;4945627;28;23318;-71
2023/03/31 05:08:51;;;;;;;10.40;3.27;;;;;;;;;;4946137;28;20197;-72
2023/03/31 05:11:16;;;;;;;10.47;3.47;;;;;;;;;;4955612;28;20210;-73
2023/03/31 05:13:41;;;;;;;13.50;3.67;;;;;;;;;;4955817;28;20214;-73
2023/03/31 05:16:08;;;;;;;11.00;3.30;;;;;;;;;;4951171;28;20625;-72
2023/03/31 05:18:33;;;;;;;13.87;4.23;;;;;;;;;;4949162;28;20266;-72
2023/03/31 05:21:07;;;;;;;15.50;4.30;;;;;;;;;;4949789;28;20557;-72
2023/03/31 05:23:32;;;;;;;11.53;3.67;;;;;;;;;;4951293;28;20211;-71
2023/03/31 05:25:57;;;;;;;10.00;3.43;;;;;;;;;;4947657;28;20451;-73
2023/03/31 05:28:23;;;;;;;12.13;4.20;;;;;;;;;;4937757;28;20645;-73
2023/03/31 05:30:48;;;;;;;13.10;3.43;;;;;;;;;;4943691;28;20210;-74
2023/03/31 05:33:13;;;;;;;12.03;3.20;;;;;;;;;;4939329;28;20230;-73
2023/03/31 05:35:39;;;;;;;7.50;3.17;;;;;;;;;;4945620;28;20233;-73
2023/03/31 05:38:05;;;;;;;9.37;3.33;;;;;;;;;;4953771;28;20654;-73
2023/03/31 05:40:30;;;;;;;9.03;3.60;;;;;;;;;;4934748;28;20896;-73
2023/03/31 05:42:55;;;;;;;11.00;3.53;;;;;;;;;;4949968;28;20466;-73
2023/03/31 05:45:21;;;;;;;9.97;3.60;;;;;;;;;;4959081;28;20191;-73
2023/03/31 05:47:46;;;;;;;11.37;3.67;;;;;;;;;;4955039;28;20683;-73
2023/03/31 05:50:11;;;;;;;8.57;4.17;;;;;;;;;;4952616;28;20206;-73
2023/03/31 05:52:37;;;;;;;9.40;4.10;;;;;;;;;;4957139;28;20246;-72
2023/03/31 05:55:03;;;;;;;9.30;3.93;;;;;;;;;;4956404;28;20535;-73
2023/03/31 05:57:28;;;;;;;8.40;4.00;;;;;;;;;;4956779;28;20183;-72
2023/03/31 05:59:54;;;;;;;11.00;4.20;;;;;;;;;;4952253;28;20440;-73
2023/03/31 06:02:19;;;;;;;7.97;3.50;;;;;;;;;;4955737;28;20699;-73
2023/03/31 06:04:44;;;;;;;9.47;3.97;;;;;;;;;;4953560;28;20183;-73
2023/03/31 06:07:10;;;;;;;7.60;3.43;;;;;;;;;;4957183;28;20326;-72
2023/03/31 06:09:35;;;;;;;8.63;3.20;;;;;;;;;;4929760;28;20665;-73
2023/03/31 06:12:00;;;;;;;9.37;3.10;;;;;;;;;;4930314;28;20639;-72
2023/03/31 06:14:26;;;;;;;7.63;3.20;;;;;;;;;;4924999;28;20304;-72
2023/03/31 06:16:51;;;;;;;7.10;3.17;;;;;;;;;;4927883;28;20181;-72
2023/03/31 06:19:16;;;;;;;12.90;3.43;;;;;;;;;;4935852;28;20646;-72
2023/03/31 06:21:42;;;;;;;7.60;3.00;;;;;;;;;;4960785;28;20203;-72
2023/03/31 06:24:07;;;;;;;7.20;3.43;;;;;;;;;;4947058;28;20179;-72
2023/03/31 06:26:33;;;;;;;8.50;3.60;;;;;;;;;;4955528;28;20290;-72
2023/03/31 06:28:59;;;;;;;6.27;2.47;;;;;;;;;;4953995;28;20193;-72
2023/03/31 06:31:24;;;;;;;6.67;3.43;;;;;;;;;;4958180;28;20841;-71
2023/03/31 06:33:49;;;;;;;5.57;2.60;;;;;;;;;;4960628;28;20214;-72
2023/03/31 06:36:16;;;;;;;6.50;2.63;;;;;;;;;;4958047;28;20183;-72
2023/03/31 06:38:42;;;;;;;6.80;3.37;;;;;;;;;;4951023;28;20187;-71
2023/03/31 06:41:08;;;;;;;8.83;2.77;;;;;;;;;;4947556;28;20448;-72
2023/03/31 06:43:33;;;;;;;6.50;2.67;;;;;;;;;;4938064;28;20203;-72
2023/03/31 06:45:59;;;;;;;6.13;2.90;;;;;;;;;;4931325;28;20957;-72
2023/03/31 06:48:24;;;;;;;8.33;3.20;;;;;;;;;;4930528;28;20198;-72
2023/03/31 06:50:50;;;;;;;4.90;2.60;;;;;;;;;;4934232;28;20191;-72
2023/03/31 06:53:15;;;;;;;8.47;3.60;;;;;;;;;;4931102;28;20211;-72
2023/03/31 06:55:40;;;;;;;11.00;3.47;;;;;;;;;;4941156;28;20786;-72
2023/03/31 06:58:06;;;;;;;7.07;3.20;;;;;;;;;;4950057;28;20198;-72
2023/03/31 07:00:32;;;;;;;4.80;3.07;;;;;;;;;;4946500;28;20328;-72
2023/03/31 07:02:57;;;;;;;5.07;2.60;;;;;;;;;;4958224;28;20210;-72
2023/03/31 07:05:28;;;;;;;7.57;3.07;;;;;;;;;;4948815;28;20550;-72
2023/03/31 07:07:54;;;;;;;5.17;2.80;;;;;;;;;;4942620;28;20270;-72
2023/03/31 07:10:20;;;;;;;6.50;3.30;;;;;;;;;;4951410;28;20448;-72
2023/03/31 07:12:45;;;;;;;4.33;2.60;;;;;;;;;;4958145;28;20438;-72
2023/03/31 07:15:11;;;;;;;9.17;2.40;;;;;;;;;;4956899;28;20174;-72
2023/03/31 07:17:36;;;;;;;6.70;3.20;;;;;;;;;;4956843;28;20214;-72
2023/03/31 07:20:03;;;;;;;6.33;2.77;;;;;;;;;;4951069;28;20666;-72
2023/03/31 07:22:28;;;;;;;7.33;3.10;;;;;;;;;;4961745;28;20195;-72
2023/03/31 07:24:53;;;;;;;5.00;2.90;;;;;;;;;;4958212;28;20425;-72
2023/03/31 07:27:19;;;;;;;7.20;3.40;;;;;;;;;;4952911;28;20188;-72
2023/03/31 07:29:44;;;;;;;4.97;2.70;;;;;;;;;;4953419;28;20571;-72
2023/03/31 07:32:09;;;;;;;4.90;2.10;;;;;;;;;;4956291;28;20218;-72
2023/03/31 07:34:35;;;;;;;7.07;2.83;;;;;;;;;;4956830;28;20736;-72
2023/03/31 07:37:00;;;;;;;6.60;2.50;;;;;;;;;;4954212;28;20698;-72
2023/03/31 07:39:25;;;;;;;8.10;3.30;;;;;;;;;;4956099;28;20175;-72
2023/03/31 07:41:51;;;;;;;8.07;2.70;;;;;;;;;;4955616;28;20206;-73
2023/03/31 07:44:17;;;;;;;5.03;2.97;;;;;;;;;;4953682;28;20195;-72
2023/03/31 07:46:43;;;;;;;4.43;2.60;;;;;;;;;;4959705;28;20556;-72
2023/03/31 07:49:09;;;;;;;5.77;2.87;;;;;;;;;;4956707;28;20430;-72
2023/03/31 07:51:34;;;;;;;6.70;3.10;;;;;;;;;;4954641;28;20179;-72
2023/03/31 07:54:00;;;;;;;6.57;2.50;;;;;;;;;;4953926;28;20477;-72
2023/03/31 07:56:25;;;;;;;5.73;2.40;;;;;;;;;;4958282;28;20182;-72
2023/03/31 07:58:51;;;;;;;4.33;2.20;;;;;;;;;;4956870;28;21022;-72
2023/03/31 08:01:17;;;;;;;6.27;2.50;;;;;;;;;;4953270;28;20194;-72
2023/03/31 08:03:43;;;;;;;4.07;2.37;;;;;;;;;;4955670;28;20419;-72
2023/03/31 08:06:08;;;;;;;5.47;2.90;;;;;;;;;;4959400;28;20971;-72
2023/03/31 08:08:37;;;;;;;3.80;2.60;;;;;;;;;;4954361;28;20183;-72
2023/03/31 08:11:02;;;;;;;5.60;2.67;;;;;;;;;;4960012;28;20593;-72
2023/03/31 08:13:27;;;;;;;4.57;2.83;;;;;;;;;;4958253;28;20467;-72
2023/03/31 08:15:52;;;;;;;4.97;2.30;;;;;;;;;;4957289;28;20186;-72
2023/03/31 08:18:18;;;;;;;5.30;2.77;;;;;;;;;;4953524;28;20177;-72
2023/03/31 08:20:44;;;;;;;5.30;2.63;;;;;;;;;;4956915;28;20214;-71
2023/03/31 08:23:10;;;;;;;5.97;3.30;;;;;;;;;;4956936;28;20484;-72
2023/03/31 08:25:36;;;;;;;4.27;2.43;;;;;;;;;;4954358;28;20928;-72
2023/03/31 08:28:02;;;;;;;6.07;2.80;;;;;;;;;;4955534;28;20423;-72
2023/03/31 08:30:27;;;;;;;6.23;2.83;;;;;;;;;;4956986;28;20192;-72
2023/03/31 08:32:52;;;;;;;5.67;3.03;;;;;;;;;;4958119;28;20221;-72
2023/03/31 08:35:17;;;;;;;5.33;2.70;;;;;;;;;;4952852;28;20948;-72
2023/03/31 08:37:43;;;;;;;6.63;3.30;;;;;;;;;;4940576;28;20522;-71
2023/03/31 08:40:12;;;;;;;9.90;3.30;;;;;;;;;;4946632;28;20291;-72
2023/03/31 08:42:42;;;;;;;5.77;3.53;;;;;;;;;;4939805;28;20221;-72
2023/03/31 08:45:15;;;;;;;7.77;3.50;;;;;;;;;;4954280;28;20919;-72
2023/03/31 08:47:41;;;;;;;4.67;2.90;;;;;;;;;;4948923;28;20466;-71
2023/03/31 08:50:11;;;;;;;6.90;3.50;;;;;;;;;;4941422;28;20509;-73
2023/03/31 08:52:46;;;;;;;4.50;3.30;;;;;;;;;;4946030;28;21005;-73
2023/03/31 08:55:31;;;;;;;4.27;3.67;;;;;;;;;;4959962;28;20826;-72
2023/03/31 08:58:16;;;;;;;6.17;4.10;;;;;;;;;;4938079;28;21165;-72
2023/03/31 09:01:02;;;;;;;7.07;3.40;;;;;;;;;;4950334;28;20818;-72
2023/03/31 09:03:32;;;;;;;5.93;3.80;;;;;;;;;;4954582;28;20974;-72
2023/03/31 09:06:00;;;;;;;8.50;3.70;;;;;;;;;;4949648;28;20989;-72
2023/03/31 09:08:32;;;;;;;5.23;3.57;;;;;;;;;;4931247;28;20795;-72
2023/03/31 09:11:03;;;;;;;6.30;3.27;;;;;;;;;;4955425;28;20620;-72
2023/03/31 09:13:41;;;;;;;4.77;2.80;;;;;;;;;;4945326;28;21005;-71
2023/03/31 09:16:14;;;;;;;6.47;4.50;;;;;;;;;;4954104;28;20437;-71
2023/03/31 09:18:45;;;;;;;4.23;3.23;;;;;;;;;;4957805;28;20425;-71
2023/03/31 09:21:10;;;;;;;6.30;3.63;;;;;;;;;;4955501;28;20433;-71
2023/03/31 09:23:41;;;;;;;6.10;3.77;;;;;;;;;;4957981;28;20449;-71
2023/03/31 09:26:11;;;;;;;6.43;4.23;;;;;;;;;;4968264;28;20273;-71
2023/03/31 09:28:38;;;;;;;7.13;4.53;;;;;;;;;;4944167;28;20426;-71
2023/03/31 09:31:10;;;;;;;9.40;4.77;;;;;;;;;;4955599;28;20429;-71
2023/03/31 09:33:39;;;;;;;8.63;4.73;;;;;;;;;;4955110;28;20562;-71
2023/03/31 09:36:12;;;;;;;7.00;4.47;;;;;;;;;;4956975;28;20448;-72
2023/03/31 09:38:38;;;;;;;9.13;5.23;;;;;;;;;;4957846;28;20438;-72
2023/03/31 09:41:04;;;;;;;6.37;4.67;;;;;;;;;;4956033;28;20430;-72
2023/03/31 09:43:33;;;;;;;10.63;5.90;;;;;;;;;;4957082;28;20230;-71
2023/03/31 09:45:59;;;;;;;10.37;6.83;;;;;;;;;;4955913;28;20435;-71
2023/03/31 09:48:26;;;;;;;10.20;6.67;;;;;;;;;;4956570;28;20977;-71
2023/03/31 09:50:54;;;;;;;7.53;5.70;;;;;;;;;;4954020;28;20199;-72
2023/03/31 09:53:40;;;;;;;9.93;6.07;;;;;;;;;;4949995;28;21029;-71
2023/03/31 09:56:13;;;;;;;5.80;4.87;;;;;;;;;;4954286;28;20442;-72
2023/03/31 09:58:41;;;;;;;10.37;6.33;;;;;;;;;;4954213;28;20479;-73
2023/03/31 10:01:09;;;;;;;10.40;6.60;;;;;;;;;;4953882;28;20419;-73
2023/03/31 10:03:45;;;;;;;14.83;6.30;;;;;;;;;;4944168;28;20508;-70
2023/03/31 10:06:13;;;;;;;9.40;5.73;;;;;;;;;;4948377;28;21645;-70
2023/03/31 10:08:41;;;;;;;9.07;6.50;;;;;;;;;;4949472;28;20443;-70
2023/03/31 10:11:11;;;;;;;7.87;5.80;;;;;;;;;;4964639;23;20538;-75
2023/03/31 10:13:36;;;;;;;8.43;5.97;;;;;;;;;;4966588;28;20457;-75
2023/03/31 10:16:02;;;;;;;10.27;6.30;;;;;;;;;;4964512;28;20434;-74
2023/03/31 10:18:32;;;;;;;7.70;6.17;;;;;;;;;;4965300;28;20186;-74
2023/03/31 10:21:05;;;;;;;11.27;5.93;;;;;;;;;;4960806;28;20493;-75
2023/03/31 10:23:31;;;;;;;12.23;5.97;;;;;;;;;;4959131;28;20498;-74
2023/03/31 10:25:57;;;;;;;7.50;6.10;;;;;;;;;;4953513;28;20453;-75
2023/03/31 10:28:22;;;;;;;13.73;6.40;;;;;;;;;;4957537;28;20464;-75
2023/03/31 10:30:49;;;;;;;9.07;5.77;;;;;;;;;;4962499;28;20210;-75
2023/03/31 10:33:16;;;;;;;9.43;5.77;;;;;;;;;;4963778;28;20210;-74
2023/03/31 10:35:42;;;;;;;12.50;6.23;;;;;;;;;;4963369;28;20430;-75
2023/03/31 10:38:13;;;;;;;8.23;4.73;;;;;;;;;;4961986;28;20835;-75
2023/03/31 10:40:40;;;;;;;7.83;5.30;;;;;;;;;;4959720;28;20633;-74
2023/03/31 10:43:15;;;;;;;8.87;5.40;;;;;;;;;;4962200;28;20418;-75
2023/03/31 10:45:46;;;;;;;8.73;5.00;;;;;;;;;;4981595;28;20835;-75
2023/03/31 10:48:22;;;;;;;8.27;4.87;;;;;;;;;;4960207;28;20438;-74
2023/03/31 10:50:48;;;;;;;10.27;4.43;;;;;;;;;;4960280;28;20446;-75
2023/03/31 10:53:14;;;;;;;9.27;4.13;;;;;;;;;;4959830;28;20470;-75
2023/03/31 10:55:58;;;;;;;9.63;3.90;;;;;;;;;;4959756;28;20202;-76
2023/03/31 10:58:36;;;;;;;7.07;4.20;;;;;;;;;;4960001;28;20422;-74
2023/03/31 11:01:17;;;;;;;7.90;4.17;;;;;;;;;;4960441;28;20974;-74
2023/03/31 11:04:00;;;;;;;6.77;3.47;;;;;;;;;;4961545;28;20426;-74
2023/03/31 11:06:34;;;;;;;7.93;3.53;;;;;;;;;;4959875;28;20406;-74
2023/03/31 11:09:05;;;;;;;6.70;2.93;;;;;;;;;;4959757;28;20421;-74
2023/03/31 11:12:03;;;;;;;7.67;3.20;;;;;;;;;;4974065;28;20500;-74
2023/03/31 11:14:34;;;;;;;5.90;3.20;;;;;;;;;;4948143;28;20486;-74
2023/03/31 11:17:08;;;;;;;6.40;3.10;;;;;;;;;;4962177;28;20473;-74
2023/03/31 11:19:45;;;;;;;7.13;3.70;;;;;;;;;;4961603;28;20426;-74
2023/03/31 11:22:33;;;;;;;11.40;3.40;;;;;;;;;;4953585;28;20466;-74
2023/03/31 11:25:08;;;;;;;5.73;3.13;;;;;;;;;;4961097;28;20410;-74
2023/03/31 11:27:36;;;;;;;7.30;3.70;;;;;;;;;;4963464;28;20432;-74
2023/03/31 11:30:02;;;;;;;5.70;3.20;;;;;;;;;;4956409;28;20442;-74
2023/03/31 11:32:46;;;;;;;9.13;3.30;;;;;;;;;;4955985;28;20978;-75
2023/03/31 11:35:15;;;;;;;10.23;2.77;;;;;;;;;;4971267;28;20874;-74
2023/03/31 11:37:51;;;;;;;5.50;2.60;;;;;;;;;;4957192;28;20842;-73
2023/03/31 11:40:29;;;;;;;4.13;2.33;;;;;;;;;;4972905;28;20485;-76
2023/03/31 11:43:10;;;;;;;5.70;2.30;;;;;;;;;;4964071;28;20425;-76
2023/03/31 11:45:57;;;;;;;3.90;1.90;;;;;;;;;;4968358;28;20450;-75
2023/03/31 11:48:36;;;;;;;2.13;1.03;;;;;;;;;;4960325;28;20430;-75
2023/03/31 11:51:03;;;;;;;1.87;1.17;;;;;;;;;;4960424;28;20957;-76
2023/03/31 11:53:37;;;;;;;4.13;1.50;;;;;;;;;;4955639;28;20473;-75
2023/03/31 11:56:03;;;;;;;3.70;1.73;;;;;;;;;;4959187;28;21459;-75
2023/03/31 11:58:34;;;;;;;3.67;1.80;;;;;;;;;;4962103;28;20445;-75
2023/03/31 12:01:06;;;;;;;4.53;1.73;;;;;;;;;;4961091;28;20450;-75
2023/03/31 12:03:57;;;;;;;3.03;1.60;;;;;;;;;;4964131;28;20488;-76
2023/03/31 12:06:26;;;;;;;4.17;1.60;;;;;;;;;;4960713;28;20433;-75
2023/03/31 12:09:18;;;;;;;3.33;1.77;;;;;;;;;;4955992;28;20450;-75
2023/03/31 12:11:47;;;;;;;3.30;1.83;;;;;;;;;;4935281;28;21032;-75
2023/03/31 12:14:22;;;;;;;3.80;1.97;;;;;;;;;;4960210;28;20457;-75
2023/03/31 12:16:56;;;;;;;4.67;1.63;;;;;;;;;;4974146;28;20446;-75
2023/03/31 12:19:27;;;;;;;3.80;1.97;;;;;;;;;;4960597;28;20480;-75
2023/03/31 12:21:59;;;;;;;4.23;1.60;;;;;;;;;;4961024;28;20496;-75
2023/03/31 12:24:25;;;;;;;6.43;2.33;;;;;;;;;;4959913;28;20433;-75
2023/03/31 12:26:56;;;;;;;2.77;1.87;;;;;;;;;;4958001;28;20504;-75
2023/03/31 12:29:45;;;;;;;4.93;2.10;;;;;;;;;;4960305;28;20592;-75
2023/03/31 12:32:22;;;;;;;4.07;2.60;;;;;;;;;;4952057;28;21082;-75
2023/03/31 12:34:53;;;;;;;4.87;2.13;;;;;;;;;;4961123;28;20531;-76
2023/03/31 12:37:18;;;;;;;3.60;2.07;;;;;;;;;;4957840;28;20438;-76
2023/03/31 12:39:58;;;;;;;8.10;2.90;;;;;;;;;;4957366;28;20419;-76
2023/03/31 12:42:56;;;;;;;7.67;2.70;;;;;;;;;;4957563;28;20194;-76
2023/03/31 12:45:28;;;;;;;6.50;2.07;;;;;;;;;;4949188;28;20442;-75
2023/03/31 12:48:09;;;;;;;6.80;2.37;;;;;;;;;;4972886;28;20469;-75
2023/03/31 12:50:39;;;;;;;7.83;2.90;;;;;;;;;;4956265;28;20877;-75
2023/03/31 12:53:11;;;;;;;4.37;1.90;;;;;;;;;;4955473;28;20469;-75
2023/03/31 12:55:39;;;;;;;5.87;2.50;;;;;;;;;;4954471;28;20431;-75
2023/03/31 12:58:27;;;;;;;5.67;2.03;;;;;;;;;;4955630;28;20438;-74
2023/03/31 13:01:05;;;;;;;4.27;2.10;;;;;;;;;;4945964;28;20542;-73
2023/03/31 13:03:39;;;;;;;5.03;2.50;;;;;;;;;;4958640;28;20446;-77
2023/03/31 13:06:05;;;;;;;5.60;2.73;;;;;;;;;;4956055;28;20429;-75
2023/03/31 13:08:49;;;;;;;8.00;1.77;;;;;;;;;;4961662;28;20445;-75
2023/03/31 13:11:15;;;;;;;3.33;1.20;;;;;;;;;;4961150;28;20574;-76
2023/03/31 13:13:44;;;;;;;4.53;1.23;;;;;;;;;;4961785;28;20469;-75
2023/03/31 13:16:09;;;;;;;3.90;1.40;;;;;;;;;;4955322;28;20426;-75
2023/03/31 13:18:35;;;;;;;3.70;1.40;;;;;;;;;;4955437;28;20977;-76
2023/03/31 13:21:04;;;;;;;4.47;1.57;;;;;;;;;;4952789;28;20304;-75
2023/03/31 13:23:32;;;;;;;5.13;1.67;;;;;;;;;;4954370;28;20178;-76
2023/03/31 13:25:58;;;;;;;5.53;1.30;;;;;;;;;;4953557;28;20577;-75
2023/03/31 13:28:24;;;;;;;3.10;1.27;;;;;;;;;;4956551;28;21052;-73
2023/03/31 13:30:53;;;;;;;6.07;1.80;;;;;;;;;;4959149;28;20202;-75
2023/03/31 13:33:18;;;;;;;3.40;1.60;;;;;;;;;;4963146;28;20950;-74
2023/03/31 13:35:45;;;;;;;3.90;1.60;;;;;;;;;;4970746;28;20522;-76
2023/03/31 13:38:23;;;;;;;4.67;1.90;;;;;;;;;;4971260;28;20214;-73
2023/03/31 13:40:54;;;;;;;3.80;1.70;;;;;;;;;;4954227;28;21367;-73
2023/03/31 13:43:28;;;;;;;5.97;1.70;;;;;;;;;;4957116;28;20471;-73
2023/03/31 13:45:56;;;;;;;4.13;1.70;;;;;;;;;;4954685;28;20441;-74
2023/03/31 13:48:31;;;;;;;5.30;1.90;;;;;;;;;;4957597;28;20460;-73
2023/03/31 13:51:14;;;;;;;5.43;1.93;;;;;;;;;;4958980;28;27163;-75
2023/03/31 13:53:59;;;;;;;5.60;2.67;;;;;;;;;;4973904;28;21024;-75
2023/03/31 13:56:44;;;;;;;3.97;2.13;;;;;;;;;;4955647;28;20413;-75
2023/03/31 13:59:27;;;;;;;6.67;2.30;;;;;;;;;;4956869;28;20858;-74
2023/03/31 14:02:11;;;;;;;7.30;2.10;;;;;;;;;;4960740;28;20444;-74
2023/03/31 14:04:36;;;;;;;5.53;2.00;;;;;;;;;;4975596;28;20430;-75
2023/03/31 14:07:07;;;;;;;5.90;2.33;;;;;;;;;;4960741;28;20995;-74
2023/03/31 14:09:33;;;;;;;5.53;2.03;;;;;;;;;;4961244;28;20179;-74
2023/03/31 14:11:59;;;;;;;5.87;2.33;;;;;;;;;;4961112;28;20458;-74
2023/03/31 14:14:26;;;;;;;7.53;2.40;;;;;;;;;;4963339;28;20458;-74
2023/03/31 14:16:51;;;;;;;5.83;2.10;;;;;;;;;;4963855;28;20659;-75
2023/03/31 14:19:16;;;;;;;6.83;2.20;;;;;;;;;;4960379;28;20407;-75
2023/03/31 14:21:41;;;;;;;10.87;2.23;;;;;;;;;;4962285;28;20194;-75
2023/03/31 14:24:20;;;;;;;7.63;1.90;;;;;;;;;;4960227;28;20198;-73
2023/03/31 14:27:06;;;;;;;5.90;2.00;;;;;;;;;;4964755;28;20197;-75
2023/03/31 14:29:35;;;;;;;6.73;1.93;;;;;;;;;;4960661;28;20817;-75
2023/03/31 14:32:15;;;;;;;5.20;2.17;;;;;;;;;;4959395;28;20617;-73
2023/03/31 14:35:03;;;;;;;6.30;1.77;;;;;;;;;;4962605;28;20766;-75
2023/03/31 14:37:29;;;;;;;6.30;2.20;;;;;;;;;;4959248;28;20807;-76
2023/03/31 14:39:56;;;;;;;7.10;2.50;;;;;;;;;;4960706;28;20422;-76
2023/03/31 14:42:26;;;;;;;8.20;2.57;;;;;;;;;;4958793;28;20211;-76
2023/03/31 14:44:54;;;;;;;7.40;2.63;;;;;;;;;;4962613;28;20485;-75
2023/03/31 14:47:21;;;;;;;8.10;2.53;;;;;;;;;;4960761;28;20442;-75
2023/03/31 14:49:47;;;;;;;8.17;2.70;;;;;;;;;;4967254;28;20475;-74
2023/03/31 14:52:15;;;;;;;8.70;3.03;;;;;;;;;;4964282;28;20455;-75
2023/03/31 14:54:42;;;;;;;5.70;2.40;;;;;;;;;;4960076;28;20217;-75